sensor_id;sensor_type;location;lat;lon;timestamp;temperature;humidity
59857;DHT22;45733;52.668;6.860;2024-02-14T00:00:29;10.10;99.90
59857;DHT22;45733;52.668;6.860;2024-02-14T00:02:54;10.00;99.90
59857;DHT22;45733;52.668;6.860;2024-02-14T00:05:22;10.10;99.90
59857;DHT22;45733;52.668;6.860;2024-02-14T00:07:50;10.00;99.90
59857;DHT22;45733;52.668;6.860;2024-02-14T00:10:18;10.10;99.90
59857;DHT22;45733;52.668;6.860;2024-02-14T00:12:43;10.10;99.90
59857;DHT22;45733;52.668;6.860;2024-02-14T00:15:10;10.10;99.90
59857;DHT22;45733;52.668;6.860;2024-02-14T00:20:21;9.90;99.90
59857;DHT22;45733;52.668;6.860;2024-02-14T00:22:47;10.20;99.90
59857;DHT22;45733;52.668;6.860;2024-02-14T00:25:13;9.90;99.90
59857;DHT22;45733;52.668;6.860;2024-02-14T00:27:39;10.20;99.90
59857;DHT22;45733;52.668;6.860;2024-02-14T00:30:26;9.90;99.90
59857;DHT22;45733;52.668;6.860;2024-02-14T00:32:52;10.20;99.90
59857;DHT22;45733;52.668;6.860;2024-02-14T00:35:24;10.20;99.90
59857;DHT22;45733;52.668;6.860;2024-02-14T00:37:55;10.10;99.90
59857;DHT22;45733;52.668;6.860;2024-02-14T00:40:37;9.90;99.90
59857;DHT22;45733;52.668;6.860;2024-02-14T00:43:06;10.00;99.90
59857;DHT22;45733;52.668;6.860;2024-02-14T00:45:47;10.00;99.90
59857;DHT22;45733;52.668;6.860;2024-02-14T00:48:16;10.30;99.90
59857;DHT22;45733;52.668;6.860;2024-02-14T00:50:51;10.20;99.90
59857;DHT22;45733;52.668;6.860;2024-02-14T00:53:36;9.90;99.90
59857;DHT22;45733;52.668;6.860;2024-02-14T00:56:33;10.20;99.90
59857;DHT22;45733;52.668;6.860;2024-02-14T00:59:32;10.30;99.90
59857;DHT22;45733;52.668;6.860;2024-02-14T01:02:00;10.00;99.90
59857;DHT22;45733;52.668;6.860;2024-02-14T01:10:57;10.40;99.90
59857;DHT22;45733;52.668;6.860;2024-02-14T01:13:28;10.50;99.90
59857;DHT22;45733;52.668;6.860;2024-02-14T01:18:56;10.10;99.90
59857;DHT22;45733;52.668;6.860;2024-02-14T01:21:48;10.10;99.90
59857;DHT22;45733;52.668;6.860;2024-02-14T01:24:35;10.30;99.90
59857;DHT22;45733;52.668;6.860;2024-02-14T01:27:03;10.10;99.90
59857;DHT22;45733;52.668;6.860;2024-02-14T01:30:15;10.30;99.90
59857;DHT22;45733;52.668;6.860;2024-02-14T01:32:46;10.70;99.90
59857;DHT22;45733;52.668;6.860;2024-02-14T01:35:41;10.20;99.90
59857;DHT22;45733;52.668;6.860;2024-02-14T01:38:14;10.80;99.90
59857;DHT22;45733;52.668;6.860;2024-02-14T01:40:43;10.80;99.90
59857;DHT22;45733;52.668;6.860;2024-02-14T01:43:21;10.70;99.90
59857;DHT22;45733;52.668;6.860;2024-02-14T01:45:50;10.70;99.90
59857;DHT22;45733;52.668;6.860;2024-02-14T01:48:24;10.80;99.90
59857;DHT22;45733;52.668;6.860;2024-02-14T01:51:11;10.40;99.90
59857;DHT22;45733;52.668;6.860;2024-02-14T01:53:37;10.90;99.90
59857;DHT22;45733;52.668;6.860;2024-02-14T01:59:40;10.30;99.90
59857;DHT22;45733;52.668;6.860;2024-02-14T02:02:31;10.40;99.90
59857;DHT22;45733;52.668;6.860;2024-02-14T02:05:23;10.60;99.90
59857;DHT22;45733;52.668;6.860;2024-02-14T02:08:09;11.00;99.90
59857;DHT22;45733;52.668;6.860;2024-02-14T02:13:49;10.80;99.90
59857;DHT22;45733;52.668;6.860;2024-02-14T02:16:15;11.00;99.90
59857;DHT22;45733;52.668;6.860;2024-02-14T02:19:02;10.40;99.90
59857;DHT22;45733;52.668;6.860;2024-02-14T02:22:04;10.50;99.90
59857;DHT22;45733;52.668;6.860;2024-02-14T02:24:36;10.70;99.90
59857;DHT22;45733;52.668;6.860;2024-02-14T02:27:24;10.50;99.90
59857;DHT22;45733;52.668;6.860;2024-02-14T02:30:01;11.10;99.90
59857;DHT22;45733;52.668;6.860;2024-02-14T02:32:36;10.90;99.90
59857;DHT22;45733;52.668;6.860;2024-02-14T02:35:34;11.00;99.90
59857;DHT22;45733;52.668;6.860;2024-02-14T02:38:03;11.10;99.90
59857;DHT22;45733;52.668;6.860;2024-02-14T02:40:29;11.10;99.90
59857;DHT22;45733;52.668;6.860;2024-02-14T02:42:56;10.60;99.90
59857;DHT22;45733;52.668;6.860;2024-02-14T02:45:35;10.60;99.90
59857;DHT22;45733;52.668;6.860;2024-02-14T02:48:09;11.20;99.90
59857;DHT22;45733;52.668;6.860;2024-02-14T02:50:35;11.40;99.90
59857;DHT22;45733;52.668;6.860;2024-02-14T02:53:01;10.90;99.90
59857;DHT22;45733;52.668;6.860;2024-02-14T02:55:32;10.70;99.90
59857;DHT22;45733;52.668;6.860;2024-02-14T02:58:01;11.10;99.90
59857;DHT22;45733;52.668;6.860;2024-02-14T03:00:41;11.40;99.90
59857;DHT22;45733;52.668;6.860;2024-02-14T03:03:08;11.50;99.90
59857;DHT22;45733;52.668;6.860;2024-02-14T03:05:34;11.30;99.90
59857;DHT22;45733;52.668;6.860;2024-02-14T03:08:00;11.40;99.90
59857;DHT22;45733;52.668;6.860;2024-02-14T03:10:26;11.00;99.90
59857;DHT22;45733;52.668;6.860;2024-02-14T03:12:53;11.30;99.90
59857;DHT22;45733;52.668;6.860;2024-02-14T03:15:19;11.50;99.90
59857;DHT22;45733;52.668;6.860;2024-02-14T03:17:47;11.50;99.90
59857;DHT22;45733;52.668;6.860;2024-02-14T03:20:14;10.90;99.90
59857;DHT22;45733;52.668;6.860;2024-02-14T03:22:40;11.10;99.90
59857;DHT22;45733;52.668;6.860;2024-02-14T03:25:18;11.40;99.90
59857;DHT22;45733;52.668;6.860;2024-02-14T03:27:44;11.30;99.90
59857;DHT22;45733;52.668;6.860;2024-02-14T03:30:16;11.50;99.90
59857;DHT22;45733;52.668;6.860;2024-02-14T03:33:02;11.40;99.90
59857;DHT22;45733;52.668;6.860;2024-02-14T03:35:34;11.10;99.90
59857;DHT22;45733;52.668;6.860;2024-02-14T03:38:12;11.70;99.90
59857;DHT22;45733;52.668;6.860;2024-02-14T03:40:40;10.90;99.90
59857;DHT22;45733;52.668;6.860;2024-02-14T03:43:09;11.50;99.90
59857;DHT22;45733;52.668;6.860;2024-02-14T03:45:52;11.00;99.90
59857;DHT22;45733;52.668;6.860;2024-02-14T03:48:18;11.50;99.90
59857;DHT22;45733;52.668;6.860;2024-02-14T03:50:44;11.10;99.90
59857;DHT22;45733;52.668;6.860;2024-02-14T03:53:09;11.50;99.90
59857;DHT22;45733;52.668;6.860;2024-02-14T03:55:37;11.50;99.90
59857;DHT22;45733;52.668;6.860;2024-02-14T03:58:06;11.60;99.90
59857;DHT22;45733;52.668;6.860;2024-02-14T04:00:37;11.90;99.90
59857;DHT22;45733;52.668;6.860;2024-02-14T04:03:02;11.40;99.90
59857;DHT22;45733;52.668;6.860;2024-02-14T04:05:28;12.10;99.90
59857;DHT22;45733;52.668;6.860;2024-02-14T04:07:55;11.70;99.90
59857;DHT22;45733;52.668;6.860;2024-02-14T04:10:21;11.70;99.90
59857;DHT22;45733;52.668;6.860;2024-02-14T04:12:47;11.80;99.90
59857;DHT22;45733;52.668;6.860;2024-02-14T04:15:19;12.00;99.90
59857;DHT22;45733;52.668;6.860;2024-02-14T04:17:45;11.20;99.90
59857;DHT22;45733;52.668;6.860;2024-02-14T04:20:10;12.20;99.90
59857;DHT22;45733;52.668;6.860;2024-02-14T04:22:36;11.60;99.90
59857;DHT22;45733;52.668;6.860;2024-02-14T04:25:03;12.30;99.90
59857;DHT22;45733;52.668;6.860;2024-02-14T04:27:29;11.40;99.90
59857;DHT22;45733;52.668;6.860;2024-02-14T04:29:57;11.80;99.90
59857;DHT22;45733;52.668;6.860;2024-02-14T04:32:23;12.30;99.90
59857;DHT22;45733;52.668;6.860;2024-02-14T04:34:49;11.30;99.90
59857;DHT22;45733;52.668;6.860;2024-02-14T04:37:15;12.30;99.90
59857;DHT22;45733;52.668;6.860;2024-02-14T04:39:49;11.40;99.90
59857;DHT22;45733;52.668;6.860;2024-02-14T04:42:18;11.60;99.90
59857;DHT22;45733;52.668;6.860;2024-02-14T04:44:44;11.50;99.90
59857;DHT22;45733;52.668;6.860;2024-02-14T04:47:11;11.80;99.90
59857;DHT22;45733;52.668;6.860;2024-02-14T04:49:39;11.40;99.90
59857;DHT22;45733;52.668;6.860;2024-02-14T04:52:11;12.60;99.90
59857;DHT22;45733;52.668;6.860;2024-02-14T04:54:37;12.50;99.90
59857;DHT22;45733;52.668;6.860;2024-02-14T04:57:02;11.80;99.90
59857;DHT22;45733;52.668;6.860;2024-02-14T04:59:30;12.50;99.90
59857;DHT22;45733;52.668;6.860;2024-02-14T05:01:56;11.50;99.90
59857;DHT22;45733;52.668;6.860;2024-02-14T05:04:22;12.30;99.90
59857;DHT22;45733;52.668;6.860;2024-02-14T05:06:48;11.80;99.90
59857;DHT22;45733;52.668;6.860;2024-02-14T05:09:15;12.20;99.90
59857;DHT22;45733;52.668;6.860;2024-02-14T05:11:41;11.70;99.90
59857;DHT22;45733;52.668;6.860;2024-02-14T05:14:07;11.60;99.90
59857;DHT22;45733;52.668;6.860;2024-02-14T05:16:33;11.90;99.90
59857;DHT22;45733;52.668;6.860;2024-02-14T05:18:59;11.60;99.90
59857;DHT22;45733;52.668;6.860;2024-02-14T05:21:26;11.60;99.90
59857;DHT22;45733;52.668;6.860;2024-02-14T05:23:59;12.20;99.90
59857;DHT22;45733;52.668;6.860;2024-02-14T05:26:27;12.10;99.90
59857;DHT22;45733;52.668;6.860;2024-02-14T05:28:56;12.70;99.90
59857;DHT22;45733;52.668;6.860;2024-02-14T05:31:24;11.60;99.90
59857;DHT22;45733;52.668;6.860;2024-02-14T05:33:50;12.40;99.90
59857;DHT22;45733;52.668;6.860;2024-02-14T05:36:16;11.70;99.90
59857;DHT22;45733;52.668;6.860;2024-02-14T05:38:42;12.10;99.90
59857;DHT22;45733;52.668;6.860;2024-02-14T05:41:09;11.80;99.90
59857;DHT22;45733;52.668;6.860;2024-02-14T05:43:36;12.50;99.90
59857;DHT22;45733;52.668;6.860;2024-02-14T05:46:01;12.80;99.90
59857;DHT22;45733;52.668;6.860;2024-02-14T05:48:27;12.80;99.90
59857;DHT22;45733;52.668;6.860;2024-02-14T05:50:56;12.80;99.90
59857;DHT22;45733;52.668;6.860;2024-02-14T05:53:24;11.90;99.90
59857;DHT22;45733;52.668;6.860;2024-02-14T05:55:53;12.70;99.90
59857;DHT22;45733;52.668;6.860;2024-02-14T05:58:19;12.90;99.90
59857;DHT22;45733;52.668;6.860;2024-02-14T06:00:45;13.00;99.90
59857;DHT22;45733;52.668;6.860;2024-02-14T06:03:11;12.10;99.90
59857;DHT22;45733;52.668;6.860;2024-02-14T06:05:37;12.90;99.90
59857;DHT22;45733;52.668;6.860;2024-02-14T06:08:03;12.20;99.90
59857;DHT22;45733;52.668;6.860;2024-02-14T06:10:31;13.10;99.90
59857;DHT22;45733;52.668;6.860;2024-02-14T06:12:59;12.50;99.90
59857;DHT22;45733;52.668;6.860;2024-02-14T06:15:34;11.90;99.90
59857;DHT22;45733;52.668;6.860;2024-02-14T06:18:03;11.90;99.90
59857;DHT22;45733;52.668;6.860;2024-02-14T06:20:29;12.50;99.90
59857;DHT22;45733;52.668;6.860;2024-02-14T06:23:00;12.80;99.90
59857;DHT22;45733;52.668;6.860;2024-02-14T06:25:26;11.90;99.90
59857;DHT22;45733;52.668;6.860;2024-02-14T06:27:52;11.90;99.90
59857;DHT22;45733;52.668;6.860;2024-02-14T06:30:19;12.90;99.90
59857;DHT22;45733;52.668;6.860;2024-02-14T06:32:45;13.30;99.90
59857;DHT22;45733;52.668;6.860;2024-02-14T06:35:11;12.80;99.90
59857;DHT22;45733;52.668;6.860;2024-02-14T06:37:40;13.00;99.90
59857;DHT22;45733;52.668;6.860;2024-02-14T06:40:06;13.30;99.90
59857;DHT22;45733;52.668;6.860;2024-02-14T06:42:34;12.70;99.90
59857;DHT22;45733;52.668;6.860;2024-02-14T06:45:00;13.00;99.90
59857;DHT22;45733;52.668;6.860;2024-02-14T06:47:36;12.70;99.90
59857;DHT22;45733;52.668;6.860;2024-02-14T06:50:03;12.20;99.90
59857;DHT22;45733;52.668;6.860;2024-02-14T06:55:28;13.20;99.90
59857;DHT22;45733;52.668;6.860;2024-02-14T06:57:55;12.40;99.90
59857;DHT22;45733;52.668;6.860;2024-02-14T07:00:23;13.50;99.90
59857;DHT22;45733;52.668;6.860;2024-02-14T07:02:49;12.60;99.90
59857;DHT22;45733;52.668;6.860;2024-02-14T07:05:14;12.60;99.90
59857;DHT22;45733;52.668;6.860;2024-02-14T07:07:41;12.60;99.90
59857;DHT22;45733;52.668;6.860;2024-02-14T07:10:07;12.20;99.90
59857;DHT22;45733;52.668;6.860;2024-02-14T07:12:33;13.00;99.90
59857;DHT22;45733;52.668;6.860;2024-02-14T07:15:01;13.50;99.90
59857;DHT22;45733;52.668;6.860;2024-02-14T07:17:29;13.40;99.90
59857;DHT22;45733;52.668;6.860;2024-02-14T07:19:55;12.90;99.90
59857;DHT22;45733;52.668;6.860;2024-02-14T07:22:21;12.40;99.90
59857;DHT22;45733;52.668;6.860;2024-02-14T07:24:47;12.70;99.90
59857;DHT22;45733;52.668;6.860;2024-02-14T07:27:14;13.60;99.90
59857;DHT22;45733;52.668;6.860;2024-02-14T07:29:40;12.50;99.90
59857;DHT22;45733;52.668;6.860;2024-02-14T07:32:12;13.50;99.90
59857;DHT22;45733;52.668;6.860;2024-02-14T07:34:40;13.60;99.90
59857;DHT22;45733;52.668;6.860;2024-02-14T07:37:06;12.40;99.90
59857;DHT22;45733;52.668;6.860;2024-02-14T07:39:35;13.80;99.90
59857;DHT22;45733;52.668;6.860;2024-02-14T07:42:02;12.50;99.90
59857;DHT22;45733;52.668;6.860;2024-02-14T07:44:28;13.60;99.90
59857;DHT22;45733;52.668;6.860;2024-02-14T07:46:54;12.70;99.90
59857;DHT22;45733;52.668;6.860;2024-02-14T07:49:19;12.70;99.90
59857;DHT22;45733;52.668;6.860;2024-02-14T07:51:46;12.40;99.90
59857;DHT22;45733;52.668;6.860;2024-02-14T07:54:12;12.60;99.90
59857;DHT22;45733;52.668;6.860;2024-02-14T07:56:42;13.40;99.90
59857;DHT22;45733;52.668;6.860;2024-02-14T07:59:07;12.60;99.90
59857;DHT22;45733;52.668;6.860;2024-02-14T08:01:33;13.80;99.90
59857;DHT22;45733;52.668;6.860;2024-02-14T08:03:59;12.70;99.90
59857;DHT22;45733;52.668;6.860;2024-02-14T08:06:25;13.80;99.90
59857;DHT22;45733;52.668;6.860;2024-02-14T08:08:50;13.30;99.90
59857;DHT22;45733;52.668;6.860;2024-02-14T08:11:19;12.70;99.90
59857;DHT22;45733;52.668;6.860;2024-02-14T08:13:45;12.70;99.90
59857;DHT22;45733;52.668;6.860;2024-02-14T08:16:11;12.80;99.90
59857;DHT22;45733;52.668;6.860;2024-02-14T08:18:38;12.70;99.90
59857;DHT22;45733;52.668;6.860;2024-02-14T08:21:06;14.00;99.90
59857;DHT22;45733;52.668;6.860;2024-02-14T08:23:34;13.30;99.90
59857;DHT22;45733;52.668;6.860;2024-02-14T08:26:00;12.90;99.90
59857;DHT22;45733;52.668;6.860;2024-02-14T08:28:27;12.90;99.90
59857;DHT22;45733;52.668;6.860;2024-02-14T08:30:56;13.10;99.90
59857;DHT22;45733;52.668;6.860;2024-02-14T08:33:22;13.90;99.90
59857;DHT22;45733;52.668;6.860;2024-02-14T08:35:48;14.20;99.90
59857;DHT22;45733;52.668;6.860;2024-02-14T08:38:14;14.00;99.90
59857;DHT22;45733;52.668;6.860;2024-02-14T08:40:39;13.70;99.90
59857;DHT22;45733;52.668;6.860;2024-02-14T08:43:05;13.80;99.90
59857;DHT22;45733;52.668;6.860;2024-02-14T08:45:35;13.00;99.90
59857;DHT22;45733;52.668;6.860;2024-02-14T08:48:01;13.10;99.90
59857;DHT22;45733;52.668;6.860;2024-02-14T08:50:27;14.10;99.90
59857;DHT22;45733;52.668;6.860;2024-02-14T08:52:53;14.10;99.90
59857;DHT22;45733;52.668;6.860;2024-02-14T08:55:21;12.90;99.90
59857;DHT22;45733;52.668;6.860;2024-02-14T08:57:47;14.10;99.90
59857;DHT22;45733;52.668;6.860;2024-02-14T09:00:13;14.00;99.90
59857;DHT22;45733;52.668;6.860;2024-02-14T09:02:44;13.20;99.90
59857;DHT22;45733;52.668;6.860;2024-02-14T09:05:09;13.00;99.90
59857;DHT22;45733;52.668;6.860;2024-02-14T09:07:35;12.90;99.90
59857;DHT22;45733;52.668;6.860;2024-02-14T09:10:02;13.70;99.90
59857;DHT22;45733;52.668;6.860;2024-02-14T09:12:31;14.10;99.90
59857;DHT22;45733;52.668;6.860;2024-02-14T09:15:03;13.10;99.90
59857;DHT22;45733;52.668;6.860;2024-02-14T09:17:30;13.50;99.90
59857;DHT22;45733;52.668;6.860;2024-02-14T09:19:56;13.90;99.90
59857;DHT22;45733;52.668;6.860;2024-02-14T09:22:21;14.30;99.90
59857;DHT22;45733;52.668;6.860;2024-02-14T09:24:48;13.50;99.90
59857;DHT22;45733;52.668;6.860;2024-02-14T09:27:14;14.30;99.90
59857;DHT22;45733;52.668;6.860;2024-02-14T09:29:40;13.30;99.90
59857;DHT22;45733;52.668;6.860;2024-02-14T09:32:06;14.30;99.90
59857;DHT22;45733;52.668;6.860;2024-02-14T09:34:31;14.20;99.90
59857;DHT22;45733;52.668;6.860;2024-02-14T09:36:57;14.40;99.90
59857;DHT22;45733;52.668;6.860;2024-02-14T09:39:24;13.00;99.90
59857;DHT22;45733;52.668;6.860;2024-02-14T09:41:58;13.90;99.90
59857;DHT22;45733;52.668;6.860;2024-02-14T09:44:27;14.00;99.90
59857;DHT22;45733;52.668;6.860;2024-02-14T09:46:55;14.40;99.90
59857;DHT22;45733;52.668;6.860;2024-02-14T09:49:21;13.90;99.90
59857;DHT22;45733;52.668;6.860;2024-02-14T09:51:55;13.30;99.90
59857;DHT22;45733;52.668;6.860;2024-02-14T09:54:22;13.50;99.90
59857;DHT22;45733;52.668;6.860;2024-02-14T09:56:50;14.40;99.90
59857;DHT22;45733;52.668;6.860;2024-02-14T09:59:19;14.10;99.90
59857;DHT22;45733;52.668;6.860;2024-02-14T10:01:48;14.50;99.90
59857;DHT22;45733;52.668;6.860;2024-02-14T10:04:16;13.40;99.90
59857;DHT22;45733;52.668;6.860;2024-02-14T10:06:44;13.80;99.90
59857;DHT22;45733;52.668;6.860;2024-02-14T10:09:10;14.50;99.90
59857;DHT22;45733;52.668;6.860;2024-02-14T10:11:39;13.50;99.90
59857;DHT22;45733;52.668;6.860;2024-02-14T10:14:08;13.60;99.90
59857;DHT22;45733;52.668;6.860;2024-02-14T10:16:37;14.40;99.90
59857;DHT22;45733;52.668;6.860;2024-02-14T10:19:23;13.70;99.90
59857;DHT22;45733;52.668;6.860;2024-02-14T10:21:57;14.30;99.90
59857;DHT22;45733;52.668;6.860;2024-02-14T10:24:29;14.50;99.90
59857;DHT22;45733;52.668;6.860;2024-02-14T10:27:06;13.80;99.90
59857;DHT22;45733;52.668;6.860;2024-02-14T10:29:34;14.60;99.90
59857;DHT22;45733;52.668;6.860;2024-02-14T10:32:00;13.40;99.90
59857;DHT22;45733;52.668;6.860;2024-02-14T10:34:26;14.20;99.90
59857;DHT22;45733;52.668;6.860;2024-02-14T10:36:53;13.90;99.90
59857;DHT22;45733;52.668;6.860;2024-02-14T10:39:22;14.90;99.90
59857;DHT22;45733;52.668;6.860;2024-02-14T10:41:53;13.80;99.90
59857;DHT22;45733;52.668;6.860;2024-02-14T10:44:23;13.70;99.90
59857;DHT22;45733;52.668;6.860;2024-02-14T10:46:52;13.50;99.90
59857;DHT22;45733;52.668;6.860;2024-02-14T10:49:20;13.70;99.90
59857;DHT22;45733;52.668;6.860;2024-02-14T10:51:57;14.30;99.90
59857;DHT22;45733;52.668;6.860;2024-02-14T10:54:52;14.50;99.90
59857;DHT22;45733;52.668;6.860;2024-02-14T10:57:29;14.40;99.90
59857;DHT22;45733;52.668;6.860;2024-02-14T11:00:08;14.20;99.90
59857;DHT22;45733;52.668;6.860;2024-02-14T11:02:59;14.20;99.90
59857;DHT22;45733;52.668;6.860;2024-02-14T11:05:48;14.00;99.90
59857;DHT22;45733;52.668;6.860;2024-02-14T11:08:21;13.90;99.90
59857;DHT22;45733;52.668;6.860;2024-02-14T11:11:15;14.90;99.90
59857;DHT22;45733;52.668;6.860;2024-02-14T11:13:44;15.00;99.90
59857;DHT22;45733;52.668;6.860;2024-02-14T11:16:12;14.80;99.90
59857;DHT22;45733;52.668;6.860;2024-02-14T11:19:07;14.10;99.90
59857;DHT22;45733;52.668;6.860;2024-02-14T11:21:56;14.60;99.90
59857;DHT22;45733;52.668;6.860;2024-02-14T11:24:27;14.50;99.90
59857;DHT22;45733;52.668;6.860;2024-02-14T11:26:55;14.40;99.90
59857;DHT22;45733;52.668;6.860;2024-02-14T11:29:28;14.90;99.90
59857;DHT22;45733;52.668;6.860;2024-02-14T11:32:00;14.00;99.90
59857;DHT22;45733;52.668;6.860;2024-02-14T11:34:27;15.00;99.90
59857;DHT22;45733;52.668;6.860;2024-02-14T11:36:53;15.00;99.90
59857;DHT22;45733;52.668;6.860;2024-02-14T11:39:20;14.90;99.90
59857;DHT22;45733;52.668;6.860;2024-02-14T11:42:06;14.80;99.90
59857;DHT22;45733;52.668;6.860;2024-02-14T11:44:34;14.00;99.90
59857;DHT22;45733;52.668;6.860;2024-02-14T11:47:06;14.30;99.90
59857;DHT22;45733;52.668;6.860;2024-02-14T11:49:32;14.10;99.90
59857;DHT22;45733;52.668;6.860;2024-02-14T11:51:58;15.30;99.90
59857;DHT22;45733;52.668;6.860;2024-02-14T11:54:24;14.20;99.90
59857;DHT22;45733;52.668;6.860;2024-02-14T11:56:50;15.20;99.90
59857;DHT22;45733;52.668;6.860;2024-02-14T11:59:18;14.50;99.90
59857;DHT22;45733;52.668;6.860;2024-02-14T12:01:45;14.80;99.90
59857;DHT22;45733;52.668;6.860;2024-02-14T12:04:15;14.60;99.90
59857;DHT22;45733;52.668;6.860;2024-02-14T12:06:41;14.50;99.90
59857;DHT22;45733;52.668;6.860;2024-02-14T12:09:07;14.50;99.90
59857;DHT22;45733;52.668;6.860;2024-02-14T12:11:36;14.40;99.90
59857;DHT22;45733;52.668;6.860;2024-02-14T12:14:09;15.20;99.90
59857;DHT22;45733;52.668;6.860;2024-02-14T12:16:36;14.70;99.90
59857;DHT22;45733;52.668;6.860;2024-02-14T12:19:08;14.50;99.90
59857;DHT22;45733;52.668;6.860;2024-02-14T12:21:36;14.50;99.90
59857;DHT22;45733;52.668;6.860;2024-02-14T12:24:09;14.80;99.90
59857;DHT22;45733;52.668;6.860;2024-02-14T12:26:36;14.50;99.90
59857;DHT22;45733;52.668;6.860;2024-02-14T12:29:05;15.10;99.90
59857;DHT22;45733;52.668;6.860;2024-02-14T12:31:35;14.30;99.90
59857;DHT22;45733;52.668;6.860;2024-02-14T12:34:03;15.00;99.90
59857;DHT22;45733;52.668;6.860;2024-02-14T12:36:31;15.00;99.90
59857;DHT22;45733;52.668;6.860;2024-02-14T12:38:58;14.40;99.90
59857;DHT22;45733;52.668;6.860;2024-02-14T12:41:25;14.80;99.90
59857;DHT22;45733;52.668;6.860;2024-02-14T12:43:55;14.40;99.90
59857;DHT22;45733;52.668;6.860;2024-02-14T12:46:21;15.30;99.90
59857;DHT22;45733;52.668;6.860;2024-02-14T12:48:47;15.10;99.90
59857;DHT22;45733;52.668;6.860;2024-02-14T12:51:14;14.70;99.90
59857;DHT22;45733;52.668;6.860;2024-02-14T12:53:40;14.90;99.90
59857;DHT22;45733;52.668;6.860;2024-02-14T12:56:06;14.60;99.90
59857;DHT22;45733;52.668;6.860;2024-02-14T12:58:33;14.90;99.90
59857;DHT22;45733;52.668;6.860;2024-02-14T13:01:02;14.80;99.90
59857;DHT22;45733;52.668;6.860;2024-02-14T13:03:34;14.40;99.90
59857;DHT22;45733;52.668;6.860;2024-02-14T13:06:01;14.30;99.90
59857;DHT22;45733;52.668;6.860;2024-02-14T13:08:27;14.80;99.90
59857;DHT22;45733;52.668;6.860;2024-02-14T13:10:53;14.40;99.90
59857;DHT22;45733;52.668;6.860;2024-02-14T13:13:19;15.20;99.90
59857;DHT22;45733;52.668;6.860;2024-02-14T13:15:44;15.20;99.90
59857;DHT22;45733;52.668;6.860;2024-02-14T13:18:10;15.10;99.90
59857;DHT22;45733;52.668;6.860;2024-02-14T13:20:36;14.80;99.90
59857;DHT22;45733;52.668;6.860;2024-02-14T13:23:03;14.10;99.90
59857;DHT22;45733;52.668;6.860;2024-02-14T13:25:29;14.60;99.90
59857;DHT22;45733;52.668;6.860;2024-02-14T13:27:55;15.00;99.90
59857;DHT22;45733;52.668;6.860;2024-02-14T13:30:21;14.20;99.90
59857;DHT22;45733;52.668;6.860;2024-02-14T13:32:48;14.40;99.90
59857;DHT22;45733;52.668;6.860;2024-02-14T13:35:14;14.80;99.90
59857;DHT22;45733;52.668;6.860;2024-02-14T13:37:39;15.20;99.90
59857;DHT22;45733;52.668;6.860;2024-02-14T13:40:06;15.10;99.90
59857;DHT22;45733;52.668;6.860;2024-02-14T13:42:36;14.80;99.90
59857;DHT22;45733;52.668;6.860;2024-02-14T13:45:07;15.50;99.90
59857;DHT22;45733;52.668;6.860;2024-02-14T13:47:37;14.50;99.90
59857;DHT22;45733;52.668;6.860;2024-02-14T13:50:08;14.70;99.90
59857;DHT22;45733;52.668;6.860;2024-02-14T13:52:35;15.60;99.90
59857;DHT22;45733;52.668;6.860;2024-02-14T13:55:05;15.20;99.90
59857;DHT22;45733;52.668;6.860;2024-02-14T13:57:39;14.30;99.90
59857;DHT22;45733;52.668;6.860;2024-02-14T14:00:07;14.90;99.90
59857;DHT22;45733;52.668;6.860;2024-02-14T14:02:35;15.60;99.90
59857;DHT22;45733;52.668;6.860;2024-02-14T14:05:07;15.50;99.90
59857;DHT22;45733;52.668;6.860;2024-02-14T14:07:35;15.40;99.90
59857;DHT22;45733;52.668;6.860;2024-02-14T14:10:10;14.20;99.90
59857;DHT22;45733;52.668;6.860;2024-02-14T14:12:36;14.80;99.90
59857;DHT22;45733;52.668;6.860;2024-02-14T14:15:03;14.30;99.90
59857;DHT22;45733;52.668;6.860;2024-02-14T14:17:30;14.70;99.90
59857;DHT22;45733;52.668;6.860;2024-02-14T14:19:55;15.50;99.90
59857;DHT22;45733;52.668;6.860;2024-02-14T14:22:21;14.20;99.90
59857;DHT22;45733;52.668;6.860;2024-02-14T14:24:47;15.50;99.90
59857;DHT22;45733;52.668;6.860;2024-02-14T14:27:13;15.40;99.90
59857;DHT22;45733;52.668;6.860;2024-02-14T14:29:43;14.50;99.90
59857;DHT22;45733;52.668;6.860;2024-02-14T14:32:09;14.20;99.90
59857;DHT22;45733;52.668;6.860;2024-02-14T14:34:35;14.80;99.90
59857;DHT22;45733;52.668;6.860;2024-02-14T14:37:02;14.20;99.90
59857;DHT22;45733;52.668;6.860;2024-02-14T14:39:30;15.50;99.90
59857;DHT22;45733;52.668;6.860;2024-02-14T14:41:57;14.10;99.90
59857;DHT22;45733;52.668;6.860;2024-02-14T14:44:24;15.40;99.90
59857;DHT22;45733;52.668;6.860;2024-02-14T14:46:51;14.50;99.90
59857;DHT22;45733;52.668;6.860;2024-02-14T14:49:16;15.10;99.90
59857;DHT22;45733;52.668;6.860;2024-02-14T14:51:43;15.20;99.90
59857;DHT22;45733;52.668;6.860;2024-02-14T14:54:09;14.20;99.90
59857;DHT22;45733;52.668;6.860;2024-02-14T14:56:38;14.20;99.90
59857;DHT22;45733;52.668;6.860;2024-02-14T14:59:07;14.00;99.90
59857;DHT22;45733;52.668;6.860;2024-02-14T15:01:33;15.40;99.90
59857;DHT22;45733;52.668;6.860;2024-02-14T15:04:02;15.30;99.90
59857;DHT22;45733;52.668;6.860;2024-02-14T15:06:28;14.60;99.90
59857;DHT22;45733;52.668;6.860;2024-02-14T15:08:54;15.20;99.90
59857;DHT22;45733;52.668;6.860;2024-02-14T15:11:23;15.40;99.90
59857;DHT22;45733;52.668;6.860;2024-02-14T15:13:51;14.40;99.90
59857;DHT22;45733;52.668;6.860;2024-02-14T15:16:17;14.50;99.90
59857;DHT22;45733;52.668;6.860;2024-02-14T15:18:43;15.80;99.90
59857;DHT22;45733;52.668;6.860;2024-02-14T15:21:12;14.60;99.90
59857;DHT22;45733;52.668;6.860;2024-02-14T15:23:38;15.40;99.90
59857;DHT22;45733;52.668;6.860;2024-02-14T15:26:11;14.20;99.90
59857;DHT22;45733;52.668;6.860;2024-02-14T15:28:45;15.30;99.90
59857;DHT22;45733;52.668;6.860;2024-02-14T15:31:11;15.20;99.90
59857;DHT22;45733;52.668;6.860;2024-02-14T15:33:55;15.00;99.90
59857;DHT22;45733;52.668;6.860;2024-02-14T15:36:22;14.50;99.90
59857;DHT22;45733;52.668;6.860;2024-02-14T15:38:50;14.90;99.90
59857;DHT22;45733;52.668;6.860;2024-02-14T15:41:17;15.10;99.90
59857;DHT22;45733;52.668;6.860;2024-02-14T15:43:46;14.10;99.90
59857;DHT22;45733;52.668;6.860;2024-02-14T15:46:14;14.80;99.90
59857;DHT22;45733;52.668;6.860;2024-02-14T15:48:40;14.40;99.90
59857;DHT22;45733;52.668;6.860;2024-02-14T15:51:06;14.30;99.90
59857;DHT22;45733;52.668;6.860;2024-02-14T15:53:32;15.30;99.90
59857;DHT22;45733;52.668;6.860;2024-02-14T15:55:58;14.90;99.90
59857;DHT22;45733;52.668;6.860;2024-02-14T15:58:25;15.20;99.90
59857;DHT22;45733;52.668;6.860;2024-02-14T16:00:51;14.20;99.90
59857;DHT22;45733;52.668;6.860;2024-02-14T16:03:17;14.60;99.90
59857;DHT22;45733;52.668;6.860;2024-02-14T16:05:44;14.90;99.90